createdAt,value
2018-04-06T00:00:08.708Z,1.1
2018-04-06T00:01:15.929Z,1.1
2018-04-06T00:02:23.143Z,1.2
2018-04-06T00:03:30.353Z,1.2
2018-04-06T00:04:37.848Z,1.3
2018-04-06T00:05:44.441Z,1.3
2018-04-06T00:06:51.881Z,1.4
2018-04-06T00:07:58.812Z,1.5
2018-04-06T00:09:05.759Z,1.5
2018-04-06T00:10:12.428Z,1.6
2018-04-06T00:11:19.090Z,1.5
2018-04-06T00:12:26.318Z,1.5
2018-04-06T00:13:33.545Z,1.5
2018-04-06T00:14:40.497Z,1.5
2018-04-06T00:15:47.380Z,1.4
2018-04-06T00:16:54.594Z,1.4
2018-04-06T00:18:02.063Z,1.3
2018-04-06T00:19:09.269Z,1.3
2018-04-06T00:20:16.486Z,1.3
2018-04-06T00:21:23.441Z,1.3
2018-04-06T00:22:30.643Z,1.3
2018-04-06T00:23:37.565Z,1.2
2018-04-06T00:24:44.764Z,1.1
2018-04-06T00:25:51.985Z,1.1
2018-04-06T00:26:59.419Z,1.1
2018-04-06T00:28:06.634Z,1
2018-04-06T00:29:13.836Z,1
2018-04-06T00:30:21.040Z,1
2018-04-06T00:31:28.477Z,1
2018-04-06T00:32:35.670Z,1
2018-04-06T00:33:43.080Z,1
2018-04-06T00:34:50.276Z,1
2018-04-06T00:35:57.495Z,1
2018-04-06T00:37:04.698Z,1
2018-04-06T00:38:11.918Z,0.9
2018-04-06T00:39:19.138Z,0.8
2018-04-06T00:40:26.358Z,0.9
2018-04-06T00:41:33.276Z,1
2018-04-06T00:42:40.478Z,1
2018-04-06T00:43:47.682Z,1.1
2018-04-06T00:44:55.116Z,1.1
2018-04-06T00:46:02.313Z,1.1
2018-04-06T00:47:09.522Z,1
2018-04-06T00:48:16.744Z,1
2018-04-06T00:49:23.960Z,1
2018-04-06T00:50:31.181Z,0.9
2018-04-06T00:51:38.122Z,0.9
2018-04-06T00:52:45.322Z,0.8
2018-04-06T00:53:52.542Z,0.8
2018-04-06T00:54:59.746Z,0.8
2018-04-06T00:56:06.905Z,0.7
2018-04-06T00:57:14.105Z,0.7
2018-04-06T00:58:21.539Z,0.7
2018-04-06T00:59:28.752Z,0.7
2018-04-06T01:00:36.169Z,0.7
2018-04-06T01:01:43.370Z,0.7
2018-04-06T01:02:50.810Z,0.7
2018-04-06T01:03:57.760Z,0.6
2018-04-06T01:05:04.988Z,0.6
2018-04-06T01:06:11.937Z,0.6
2018-04-06T01:07:19.157Z,0.5
2018-04-06T01:08:26.375Z,0.5
2018-04-06T01:09:33.806Z,0.5
2018-04-06T01:10:41.011Z,0.5
2018-04-06T01:11:48.457Z,0.5
2018-04-06T01:12:55.674Z,0.5
2018-04-06T01:14:02.341Z,0.5
2018-04-06T01:15:09.565Z,0.5
2018-04-06T01:16:16.757Z,0.5
2018-04-06T01:17:23.982Z,0.4
2018-04-06T01:18:31.205Z,0.4
2018-04-06T01:19:38.428Z,0.4
2018-04-06T01:20:45.865Z,0.3
2018-04-06T01:21:53.086Z,0.2
2018-04-06T01:23:00.524Z,0.2
2018-04-06T01:24:07.417Z,0.2
2018-04-06T01:25:14.860Z,0.2
2018-04-06T01:26:22.065Z,0.1
2018-04-06T01:27:29.278Z,0.1
2018-04-06T01:28:35.933Z,0.1
2018-04-06T01:29:43.360Z,0.1
2018-04-06T01:30:50.289Z,0.1
2018-04-06T01:31:57.510Z,0.1
2018-04-06T01:33:04.734Z,0.1
2018-04-06T01:34:11.971Z,0.1
2018-04-06T01:35:19.190Z,0
2018-04-06T01:36:26.415Z,0
2018-04-06T01:37:33.355Z,-0.1
2018-04-06T01:38:40.013Z,-0.1
2018-04-06T01:39:47.225Z,-0.1
2018-04-06T01:40:54.442Z,-0.1
2018-04-06T01:42:01.642Z,-0.2
2018-04-06T01:43:08.595Z,-0.2
2018-04-06T01:44:15.805Z,-0.2
2018-04-06T01:45:23.006Z,-0.2
2018-04-06T01:46:30.235Z,-0.3
2018-04-06T01:47:37.449Z,-0.3
2018-04-06T01:48:44.647Z,-0.3
2018-04-06T01:49:52.085Z,-0.3
2018-04-06T01:50:59.020Z,-0.4
2018-04-06T01:52:06.170Z,-0.3
2018-04-06T01:53:13.094Z,-0.4
2018-04-06T01:54:20.295Z,-0.4
2018-04-06T01:55:27.740Z,-0.4
2018-04-06T01:56:34.956Z,-0.5
2018-04-06T01:57:42.179Z,-0.5
2018-04-06T01:58:49.373Z,-0.5
2018-04-06T01:59:56.693Z,-0.5
2018-04-06T02:01:04.137Z,-0.5
2018-04-06T02:02:11.359Z,-0.5
2018-04-06T02:03:18.809Z,-0.5
2018-04-06T02:04:26.009Z,-0.4
2018-04-06T02:05:33.440Z,-0.5
2018-04-06T02:06:40.660Z,-0.5
2018-04-06T02:07:48.079Z,-0.6
2018-04-06T02:08:55.279Z,-0.7
2018-04-06T02:10:02.206Z,-0.7
2018-04-06T02:11:09.426Z,-0.8
2018-04-06T02:12:16.633Z,-0.8
2018-04-06T02:13:23.579Z,-0.8
2018-04-06T02:14:30.529Z,-0.7
2018-04-06T02:15:37.732Z,-0.7
2018-04-06T02:16:45.165Z,-0.7
2018-04-06T02:17:52.368Z,-0.8
2018-04-06T02:18:59.517Z,-0.8
2018-04-06T02:20:06.727Z,-0.9
2018-04-06T02:21:13.936Z,-0.9
2018-04-06T02:22:21.165Z,-0.9
2018-04-06T02:23:28.386Z,-1
2018-04-06T02:24:35.868Z,-0.9
2018-04-06T02:25:42.995Z,-0.9
2018-04-06T02:26:50.228Z,-0.9
2018-04-06T02:27:57.678Z,-0.9
2018-04-06T02:29:04.888Z,-0.9
2018-04-06T02:30:12.052Z,-0.9
2018-04-06T02:31:19.258Z,-0.9
2018-04-06T02:32:26.504Z,-1
2018-04-06T02:33:33.748Z,-1
2018-04-06T02:34:40.897Z,-1
2018-04-06T02:35:48.104Z,-1
2018-04-06T02:36:55.567Z,-1
2018-04-06T02:38:02.508Z,-1
2018-04-06T02:39:09.735Z,-1
2018-04-06T02:40:16.989Z,-1
2018-04-06T02:41:24.215Z,-1
2018-04-06T02:42:31.137Z,-1
2018-04-06T02:43:38.566Z,-1
2018-04-06T02:44:45.904Z,-1
2018-04-06T02:45:52.828Z,-1.1
2018-04-06T02:47:00.036Z,-1
2018-04-06T02:48:07.273Z,-1
2018-04-06T02:49:14.496Z,-1
2018-04-06T02:50:21.424Z,-1
2018-04-06T02:51:28.332Z,-1
2018-04-06T02:52:35.549Z,-1
2018-04-06T02:53:42.770Z,-1.1
2018-04-06T02:54:50.005Z,-1.2
2018-04-06T02:55:57.209Z,-1.2
2018-04-06T02:57:04.646Z,-1.2
2018-04-06T02:58:12.046Z,-1.2
2018-04-06T02:59:19.263Z,-1.2
2018-04-06T03:00:26.458Z,-1.2
2018-04-06T03:01:33.676Z,-1.2
2018-04-06T03:02:40.893Z,-1.2
2018-04-06T03:03:48.094Z,-1.2
2018-04-06T03:04:55.037Z,-1.2
2018-04-06T03:06:02.477Z,-1.2
2018-04-06T03:07:09.690Z,-1.2
2018-04-06T03:08:16.912Z,-1.2
2018-04-06T03:09:24.110Z,-1.2
2018-04-06T03:10:31.341Z,-1.2
2018-04-06T03:11:38.279Z,-1.3
2018-04-06T03:12:45.501Z,-1.3
2018-04-06T03:13:52.713Z,-1.3
2018-04-06T03:15:00.148Z,-1.3
2018-04-06T03:16:07.358Z,-1.3
2018-04-06T03:17:14.581Z,-1.3
2018-04-06T03:18:21.785Z,-1.3
2018-04-06T03:19:28.999Z,-1.3
2018-04-06T03:20:36.228Z,-1.3
2018-04-06T03:21:43.440Z,-1.3
2018-04-06T03:22:50.648Z,-1.3
2018-04-06T03:23:58.070Z,-1.3
2018-04-06T03:25:05.268Z,-1.4
2018-04-06T03:26:12.425Z,-1.4
2018-04-06T03:27:19.352Z,-1.4
2018-04-06T03:28:26.566Z,-1.4
2018-04-06T03:29:33.511Z,-1.4
2018-04-06T03:30:40.751Z,-1.4
2018-04-06T03:31:47.966Z,-1.5
2018-04-06T03:32:55.188Z,-1.5
2018-04-06T03:34:02.132Z,-1.5
2018-04-06T03:35:09.578Z,-1.5
2018-04-06T03:36:16.776Z,-1.5
2018-04-06T03:37:23.933Z,-1.5
2018-04-06T03:38:31.136Z,-1.5
2018-04-06T03:39:38.564Z,-1.5
2018-04-06T03:40:45.777Z,-1.5
2018-04-06T03:41:52.733Z,-1.5
2018-04-06T03:42:59.674Z,-1.5
2018-04-06T03:44:06.601Z,-1.5
2018-04-06T03:45:13.562Z,-1.5
2018-04-06T03:46:20.500Z,-1.5
2018-04-06T03:47:27.716Z,-1.5
2018-04-06T03:48:34.660Z,-1.5
2018-04-06T03:49:41.594Z,-1.5
2018-04-06T03:50:48.534Z,-1.6
2018-04-06T03:51:55.473Z,-1.6
2018-04-06T03:53:02.706Z,-1.6
2018-04-06T03:54:09.620Z,-1.6
2018-04-06T03:55:16.548Z,-1.7
2018-04-06T03:56:23.491Z,-1.6
2018-04-06T03:57:30.697Z,-1.7
2018-04-06T03:58:37.648Z,-1.7
2018-04-06T03:59:44.596Z,-1.7
2018-04-06T04:00:51.524Z,-1.8
2018-04-06T04:01:58.680Z,-1.8
2018-04-06T04:03:05.883Z,-1.8
2018-04-06T04:04:13.046Z,-1.8
2018-04-06T04:05:20.260Z,-1.8
2018-04-06T04:06:27.200Z,-1.8
2018-04-06T04:07:34.452Z,-1.8
2018-04-06T04:08:41.388Z,-1.8
2018-04-06T04:09:48.585Z,-1.8
2018-04-06T04:10:56.015Z,-1.8
2018-04-06T04:12:02.936Z,-1.8
2018-04-06T04:13:10.367Z,-1.8
2018-04-06T04:14:17.011Z,-1.8
2018-04-06T04:15:23.902Z,-1.8
2018-04-06T04:16:30.823Z,-1.8
2018-04-06T04:17:37.487Z,-1.9
2018-04-06T04:18:44.138Z,-1.9
2018-04-06T04:19:51.366Z,-1.9
2018-04-06T04:20:58.589Z,-1.9
2018-04-06T04:22:05.793Z,-1.9
2018-04-06T04:23:13.057Z,-1.8
2018-04-06T04:24:20.258Z,-1.8
2018-04-06T04:25:27.470Z,-1.7
2018-04-06T04:26:34.671Z,-1.7
2018-04-06T04:27:41.871Z,-1.7
2018-04-06T04:28:48.800Z,-1.8
2018-04-06T04:29:55.736Z,-1.9
2018-04-06T22:00:06.813Z,7.8
2018-04-06T22:01:13.732Z,7.7
2018-04-06T22:02:20.939Z,7.7
2018-04-06T22:03:28.145Z,7.7
2018-04-06T22:04:35.079Z,7.6
2018-04-06T22:05:42.299Z,7.6
2018-04-06T22:06:49.512Z,7.5
2018-04-06T22:07:56.740Z,7.6
2018-04-06T22:09:03.940Z,7.6
2018-04-06T22:10:11.141Z,7.7
2018-04-06T22:11:18.358Z,7.6
2018-04-06T22:12:25.562Z,7.6
2018-04-06T22:13:32.223Z,7.4
2018-04-06T22:14:39.430Z,7.4
2018-04-06T22:15:46.643Z,7.4
2018-04-06T22:16:53.604Z,7.4
2018-04-06T22:18:00.808Z,7.4
2018-04-06T22:19:08.249Z,7.4
2018-04-06T22:20:15.447Z,7.4
2018-04-06T22:21:22.393Z,7.4
2018-04-06T22:22:29.597Z,7.3
2018-04-06T22:23:36.522Z,7.3
2018-04-06T22:24:43.452Z,7.2
2018-04-06T22:25:50.655Z,7.2
2018-04-06T22:26:57.880Z,7.2
2018-04-06T22:28:04.795Z,7.2
2018-04-06T22:29:12.014Z,7.2
2018-04-06T22:30:18.945Z,7.3
2018-04-06T22:31:26.154Z,7.3
2018-04-06T22:32:33.364Z,7.2
2018-04-06T22:33:40.312Z,7.2
2018-04-06T22:36:00.429Z,7.2
2018-04-06T22:37:07.143Z,7.2
2018-04-06T22:38:14.069Z,7.2
2018-04-06T22:39:21.281Z,7.2
2018-04-06T22:40:28.480Z,7.1
2018-04-06T22:41:35.405Z,7.1
2018-04-06T22:42:42.334Z,7
2018-04-06T22:43:49.559Z,7
2018-04-06T22:44:56.765Z,7
2018-04-06T22:46:03.982Z,6.9
2018-04-06T22:47:10.902Z,6.9
2018-04-06T22:48:17.833Z,6.9
2018-04-06T22:49:25.039Z,7
2018-04-06T22:50:31.722Z,7
2018-04-06T22:51:38.928Z,7.1
2018-04-06T22:52:45.862Z,7.2
2018-04-06T22:53:53.076Z,7.3
2018-04-06T22:55:00.279Z,7.4
2018-04-06T22:56:06.949Z,7.5
2018-04-06T22:57:14.160Z,7.4
2018-04-06T22:58:21.086Z,7.3
2018-04-06T22:59:28.065Z,7.2
2018-04-06T23:00:35.265Z,7.2
2018-04-06T23:01:42.201Z,7
2018-04-06T23:02:49.439Z,6.9
2018-04-06T23:03:56.586Z,6.9
2018-04-06T23:05:03.508Z,6.9
2018-04-06T23:06:10.706Z,6.9
2018-04-06T23:07:17.629Z,6.9
2018-04-06T23:08:24.569Z,7
2018-04-06T23:09:31.768Z,7
2018-04-06T23:10:38.720Z,6.9
2018-04-06T23:11:45.661Z,6.9
2018-04-06T23:12:52.608Z,6.8
2018-04-06T23:13:59.806Z,6.8
2018-04-06T23:15:06.756Z,6.7
2018-04-06T23:16:13.684Z,6.8
2018-04-06T23:17:20.620Z,6.8
2018-04-06T23:18:27.562Z,6.8
2018-04-06T23:19:34.220Z,6.8
2018-04-06T23:20:41.450Z,6.8
2018-04-06T23:21:48.653Z,6.8
2018-04-06T23:22:55.866Z,6.8
2018-04-06T23:24:02.811Z,6.8
2018-04-06T23:25:09.738Z,6.8
2018-04-06T23:26:16.689Z,6.7
2018-04-06T23:27:23.346Z,6.6
2018-04-06T23:28:30.569Z,6.6
2018-04-06T23:29:37.774Z,6.5
2018-04-06T23:30:44.982Z,6.5
2018-04-06T23:31:51.650Z,6.6
2018-04-06T23:32:58.591Z,6.6
2018-04-06T23:34:05.251Z,6.6
2018-04-06T23:35:11.928Z,6.5
2018-04-06T23:36:18.848Z,6.6
2018-04-06T23:37:26.072Z,6.6
2018-04-06T23:38:33.275Z,6.7
2018-04-06T23:39:40.481Z,6.7
2018-04-06T23:40:47.684Z,6.7
2018-04-06T23:41:54.610Z,6.6
2018-04-06T23:43:01.813Z,6.6
2018-04-06T23:44:09.031Z,6.6
2018-04-06T23:45:16.240Z,6.6
2018-04-06T23:46:23.447Z,6.6
2018-04-06T23:47:30.663Z,6.6
2018-04-06T23:48:37.861Z,6.5
2018-04-06T23:49:45.063Z,6.5
2018-04-06T23:50:52.266Z,6.4
2018-04-06T23:51:59.198Z,6.5
2018-04-06T23:53:06.410Z,6.5
2018-04-06T23:54:13.335Z,6.4
2018-04-06T23:55:20.256Z,6.4
2018-04-06T23:56:27.457Z,6.3
2018-04-06T23:57:34.663Z,6.3
2018-04-06T23:58:41.585Z,6.4
2018-04-06T23:59:48.788Z,6.5
